Time;durP1;ratioP1;P1;durP2;ratioP2;P2;SDS_P1;SDS_P2;PMS_P1;PMS_P2;Temp;Humidity;BMP_temperature;BMP_pressure;BME280_temperature;BME280_humidity;BME280_pressure;Samples;Min_cycle;Max_cycle;Signal;HPM_P1;HPM_P2
2022/12/19 00:01:35;;;;;;;22.23;12.37;;;2.00;99.90;;;;;;5074186;28;20217;-54
2022/12/19 00:04:08;;;;;;;23.30;13.03;;;2.00;99.90;;;;;;5075797;28;20271;-53
2022/12/19 00:06:37;;;;;;;25.80;12.77;;;2.10;99.90;;;;;;5068045;28;20243;-54
2022/12/19 00:09:10;;;;;;;23.93;11.67;;;2.10;99.90;;;;;;5076842;28;20202;-60
2022/12/19 00:11:38;;;;;;;25.00;12.47;;;2.10;99.90;;;;;;5079174;28;20249;-55
2022/12/19 00:14:05;;;;;;;23.80;11.27;;;2.20;99.90;;;;;;5074671;28;20218;-56
2022/12/19 00:16:32;;;;;;;24.73;12.80;;;2.30;99.90;;;;;;5064427;28;20290;-54
2022/12/19 00:19:00;;;;;;;25.13;13.17;;;2.30;99.90;;;;;;5075975;28;20195;-54
2022/12/19 00:21:32;;;;;;;26.80;13.00;;;2.30;99.90;;;;;;5077805;28;20228;-55
2022/12/19 00:24:05;;;;;;;22.43;12.33;;;2.40;99.90;;;;;;5075609;28;20197;-55
2022/12/19 00:26:47;;;;;;;23.70;12.17;;;2.40;99.90;;;;;;5077366;28;20203;-55
2022/12/19 00:29:14;;;;;;;26.17;13.43;;;2.50;99.90;;;;;;5072491;28;20301;-54
2022/12/19 00:31:42;;;;;;;21.10;12.33;;;2.50;99.90;;;;;;5076096;28;20676;-54
2022/12/19 00:34:09;;;;;;;23.87;12.53;;;2.50;99.90;;;;;;5057776;28;20913;-54
2022/12/19 00:36:36;;;;;;;21.33;11.83;;;2.50;99.90;;;;;;5076655;28;20202;-56
2022/12/19 00:39:04;;;;;;;26.23;13.30;;;2.50;99.90;;;;;;5074411;28;20199;-55
2022/12/19 00:41:36;;;;;;;29.83;13.80;;;2.50;99.90;;;;;;5077553;28;20202;-54
2022/12/19 00:44:08;;;;;;;27.77;13.07;;;2.60;99.90;;;;;;5074852;28;20347;-54
2022/12/19 00:46:36;;;;;;;28.13;13.50;;;2.60;99.90;;;;;;5076711;28;20200;-54
2022/12/19 00:49:03;;;;;;;27.60;13.50;;;2.60;99.90;;;;;;5076038;28;20210;-57
2022/12/19 00:51:33;;;;;;;24.57;12.90;;;2.60;99.90;;;;;;5076816;28;20682;-55
2022/12/19 00:54:00;;;;;;;27.60;14.13;;;2.60;99.90;;;;;;5075415;28;20249;-57
2022/12/19 00:56:32;;;;;;;23.63;10.87;;;2.60;99.90;;;;;;5078220;28;20201;-54
2022/12/19 00:59:03;;;;;;;24.77;12.87;;;2.60;99.90;;;;;;5075616;28;20203;-55
2022/12/19 01:01:33;;;;;;;26.10;13.23;;;2.70;99.90;;;;;;5072208;28;20260;-54
2022/12/19 01:04:02;;;;;;;27.53;14.03;;;2.70;99.90;;;;;;5075551;28;20285;-55
2022/12/19 01:06:49;;;;;;;25.33;12.97;;;2.70;99.90;;;;;;5073978;28;20214;-54
2022/12/19 01:09:17;;;;;;;27.97;14.17;;;2.70;99.90;;;;;;5080091;28;20253;-54
2022/12/19 01:14:29;;;;;;;22.53;12.27;;;2.70;99.90;;;;;;5081789;28;20223;-54
2022/12/19 01:16:56;;;;;;;24.67;13.43;;;2.70;99.90;;;;;;5083348;28;20290;-55
2022/12/19 01:19:23;;;;;;;25.53;13.83;;;2.70;99.90;;;;;;5079814;28;20296;-55
2022/12/19 01:21:50;;;;;;;17.27;9.27;;;2.70;99.90;;;;;;5080747;28;20563;-55
2022/12/19 01:24:17;;;;;;;28.83;13.73;;;2.70;99.90;;;;;;5080395;28;20206;-55
2022/12/19 01:26:45;;;;;;;23.53;12.77;;;2.70;99.90;;;;;;5082602;28;20287;-54
2022/12/19 01:29:12;;;;;;;25.83;13.27;;;2.70;99.90;;;;;;5079991;28;20244;-54
2022/12/19 01:31:38;;;;;;;24.00;13.63;;;2.80;99.90;;;;;;5079254;28;20272;-54
2022/12/19 01:34:05;;;;;;;27.63;13.30;;;2.80;99.90;;;;;;5080105;28;20211;-55
2022/12/19 01:36:34;;;;;;;23.93;13.03;;;2.80;99.90;;;;;;5078281;28;20203;-55
2022/12/19 01:39:06;;;;;;;22.20;12.17;;;2.80;99.90;;;;;;5060485;28;20283;-55
2022/12/19 01:41:33;;;;;;;23.20;12.37;;;2.80;99.90;;;;;;5076993;28;20230;-55
2022/12/19 01:44:05;;;;;;;24.73;12.67;;;2.80;99.90;;;;;;5077206;28;20202;-55
2022/12/19 01:46:39;;;;;;;22.07;12.63;;;2.80;99.90;;;;;;5079196;28;20846;-55
2022/12/19 01:49:22;;;;;;;27.23;13.23;;;2.90;99.90;;;;;;5081162;28;20228;-55
2022/12/19 01:51:52;;;;;;;26.83;13.17;;;2.90;99.90;;;;;;5082136;28;20261;-55
2022/12/19 01:54:24;;;;;;;24.90;12.43;;;2.90;99.90;;;;;;5079838;28;20210;-55
2022/12/19 01:56:54;;;;;;;25.70;13.23;;;2.90;99.90;;;;;;5081895;28;20206;-54
2022/12/19 01:59:32;;;;;;;24.30;12.37;;;2.90;99.90;;;;;;5079625;28;20199;-55
2022/12/19 02:02:13;;;;;;;24.40;12.37;;;2.90;99.90;;;;;;5080007;28;20661;-55
2022/12/19 02:04:40;;;;;;;20.57;11.93;;;3.00;99.90;;;;;;5079531;28;20199;-55
2022/12/19 02:07:08;;;;;;;27.47;13.07;;;3.00;99.90;;;;;;5079968;28;20234;-55
2022/12/19 02:09:44;;;;;;;26.70;12.37;;;3.00;99.90;;;;;;5078312;28;20212;-55
2022/12/19 02:12:12;;;;;;;24.87;12.67;;;3.00;99.90;;;;;;5078731;28;20294;-55
2022/12/19 02:14:40;;;;;;;25.40;11.40;;;3.00;99.90;;;;;;5080063;28;20218;-55
2022/12/19 02:17:10;;;;;;;21.80;12.80;;;3.10;99.90;;;;;;5079245;28;20195;-58
2022/12/19 02:20:05;;;;;;;25.50;13.53;;;3.10;99.90;;;;;;5079109;28;20207;-55
2022/12/19 02:22:47;;;;;;;23.73;12.50;;;3.10;99.90;;;;;;5080113;28;20263;-55
2022/12/19 02:25:20;;;;;;;23.67;13.20;;;3.10;99.90;;;;;;5080053;28;20231;-55
2022/12/19 02:28:10;;;;;;;23.90;11.40;;;3.10;99.90;;;;;;5077369;28;20213;-55
2022/12/19 02:31:03;;;;;;;23.50;13.33;;;3.20;99.90;;;;;;5079434;28;20296;-55
2022/12/19 02:33:55;;;;;;;27.40;12.60;;;3.20;99.90;;;;;;5080062;28;20214;-55
2022/12/19 02:36:57;;;;;;;23.87;11.77;;;3.20;99.90;;;;;;5079033;28;21120;-55
2022/12/19 02:39:49;;;;;;;30.03;13.20;;;3.20;99.90;;;;;;5076386;28;20208;-54
2022/12/19 02:42:26;;;;;;;23.80;13.10;;;3.20;99.90;;;;;;5077176;28;20241;-56
2022/12/19 02:44:58;;;;;;;23.17;12.87;;;3.20;99.90;;;;;;5080339;28;20209;-55
2022/12/19 02:47:25;;;;;;;23.27;11.77;;;3.20;99.90;;;;;;5079403;28;20862;-54
2022/12/19 02:49:52;;;;;;;22.23;11.87;;;3.20;99.90;;;;;;5079408;28;20571;-60
2022/12/19 02:52:19;;;;;;;24.13;12.43;;;3.20;99.90;;;;;;5078521;28;20288;-55
2022/12/19 02:54:49;;;;;;;26.20;13.10;;;3.20;99.90;;;;;;5079138;28;20581;-56
2022/12/19 02:57:19;;;;;;;25.10;12.63;;;3.30;99.90;;;;;;5078657;28;20645;-60
2022/12/19 02:59:52;;;;;;;22.73;12.67;;;3.40;99.90;;;;;;5077081;28;20291;-56
2022/12/19 03:02:20;;;;;;;21.60;12.50;;;3.40;99.90;;;;;;5079692;28;20194;-56
2022/12/19 03:05:03;;;;;;;21.60;12.33;;;3.40;99.90;;;;;;5079442;28;20702;-56
2022/12/19 03:07:35;;;;;;;25.63;12.77;;;3.40;99.90;;;;;;5076175;28;20235;-55
2022/12/19 03:10:14;;;;;;;23.40;12.47;;;3.50;99.90;;;;;;5079263;28;20282;-56
2022/12/19 03:12:55;;;;;;;22.53;11.83;;;3.50;99.90;;;;;;5075600;28;20289;-57
2022/12/19 03:15:23;;;;;;;20.47;10.43;;;3.50;99.90;;;;;;5078318;28;20211;-55
2022/12/19 03:17:50;;;;;;;26.67;13.20;;;3.50;99.90;;;;;;5077611;28;20209;-57
2022/12/19 03:20:35;;;;;;;26.10;11.93;;;3.60;99.90;;;;;;5077500;28;20256;-55
2022/12/19 03:23:02;;;;;;;18.07;9.80;;;3.60;99.90;;;;;;5077397;28;20196;-54
2022/12/19 03:25:30;;;;;;;20.53;11.00;;;3.70;99.90;;;;;;5078458;28;20210;-63
2022/12/19 03:28:02;;;;;;;17.53;10.90;;;3.70;99.90;;;;;;5076602;28;20517;-56
2022/12/19 03:30:32;;;;;;;18.60;10.67;;;3.80;99.90;;;;;;5078542;28;20508;-55
2022/12/19 03:33:00;;;;;;;17.03;9.87;;;3.90;99.90;;;;;;5080432;28;20210;-55
2022/12/19 03:35:29;;;;;;;21.83;10.20;;;3.90;99.90;;;;;;5078318;28;20553;-55
2022/12/19 03:38:00;;;;;;;19.67;10.53;;;4.00;99.90;;;;;;5076745;28;20203;-55
2022/12/19 03:40:29;;;;;;;17.70;10.50;;;4.00;99.90;;;;;;5078585;28;20226;-55
2022/12/19 03:43:10;;;;;;;18.27;9.10;;;4.10;99.90;;;;;;5076531;28;20241;-55
2022/12/19 03:45:56;;;;;;;15.93;8.97;;;4.20;99.90;;;;;;5076778;28;20221;-55
2022/12/19 03:48:54;;;;;;;16.97;9.70;;;4.20;99.90;;;;;;5075634;28;20210;-55
2022/12/19 03:51:38;;;;;;;16.00;8.87;;;4.30;99.90;;;;;;5078087;28;20737;-55
2022/12/19 03:54:21;;;;;;;14.20;8.43;;;4.30;99.90;;;;;;5076990;28;20704;-55
2022/12/19 03:57:05;;;;;;;13.13;8.17;;;4.30;99.90;;;;;;5077455;28;20575;-55
2022/12/19 03:59:50;;;;;;;16.30;9.03;;;4.40;99.90;;;;;;5075993;28;20203;-56
2022/12/19 04:02:19;;;;;;;13.80;8.07;;;4.40;99.90;;;;;;5075217;28;20201;-55
2022/12/19 04:04:59;;;;;;;14.60;9.17;;;4.50;99.90;;;;;;5077268;28;20216;-55
2022/12/19 04:07:26;;;;;;;16.07;8.40;;;4.50;99.90;;;;;;5077472;28;20325;-55
2022/12/19 04:09:56;;;;;;;16.30;8.83;;;4.70;99.90;;;;;;5075995;28;20198;-55
2022/12/19 04:12:37;;;;;;;14.63;8.60;;;4.70;99.90;;;;;;5075108;28;20313;-54
2022/12/19 04:15:05;;;;;;;14.07;7.67;;;4.80;99.90;;;;;;5074628;28;20242;-54
2022/12/19 04:17:54;;;;;;;13.00;8.13;;;4.90;99.90;;;;;;5074694;28;20626;-55
2022/12/19 04:20:25;;;;;;;13.27;7.03;;;5.00;99.90;;;;;;5077825;28;20655;-56
2022/12/19 04:23:10;;;;;;;11.37;7.73;;;5.00;99.90;;;;;;5076981;28;20191;-56
2022/12/19 04:25:44;;;;;;;11.97;6.70;;;5.10;99.90;;;;;;5077531;28;20202;-56
2022/12/19 04:28:32;;;;;;;10.53;6.83;;;5.20;99.90;;;;;;5075569;28;20208;-56
2022/12/19 04:31:00;;;;;;;12.33;6.93;;;5.20;99.90;;;;;;5076774;28;20196;-56
2022/12/19 04:33:26;;;;;;;12.60;7.63;;;5.30;99.90;;;;;;5075234;28;20195;-56
2022/12/19 04:35:53;;;;;;;13.73;7.27;;;5.30;99.90;;;;;;5077306;28;20333;-56
2022/12/19 04:38:20;;;;;;;9.63;6.27;;;5.40;99.90;;;;;;5075298;28;20571;-55
2022/12/19 04:40:47;;;;;;;11.47;7.13;;;5.50;99.90;;;;;;5078550;28;20195;-56
2022/12/19 04:43:14;;;;;;;12.00;6.43;;;5.60;99.90;;;;;;5078870;28;20565;-55
2022/12/19 04:45:41;;;;;;;12.50;6.83;;;5.60;99.90;;;;;;5081604;28;20615;-58
2022/12/19 04:48:08;;;;;;;14.40;7.63;;;5.60;99.90;;;;;;5063780;28;20658;-56
2022/12/19 04:50:35;;;;;;;10.80;7.07;;;5.70;99.90;;;;;;5080588;28;20198;-57
2022/12/19 04:53:02;;;;;;;13.53;6.63;;;5.70;99.90;;;;;;5075949;28;20210;-56
2022/12/19 04:55:29;;;;;;;11.17;7.37;;;5.80;99.90;;;;;;5077366;28;20207;-59
2022/12/19 04:57:56;;;;;;;9.00;7.23;;;5.80;99.90;;;;;;5074694;28;20191;-56
2022/12/19 05:00:23;;;;;;;10.50;6.73;;;5.80;99.90;;;;;;5078242;28;20301;-56
2022/12/19 05:02:49;;;;;;;10.50;5.97;;;5.80;99.90;;;;;;5076673;28;20195;-55
2022/12/19 05:05:17;;;;;;;10.03;6.83;;;5.90;99.90;;;;;;5062089;28;21281;-56
2022/12/19 05:07:45;;;;;;;10.70;7.00;;;6.00;99.90;;;;;;5066852;28;20235;-56
2022/12/19 05:10:13;;;;;;;10.67;6.43;;;6.00;99.90;;;;;;5055380;28;20203;-57
2022/12/19 05:12:40;;;;;;;8.60;6.10;;;6.00;99.90;;;;;;5056083;28;20214;-56
2022/12/19 05:15:07;;;;;;;10.37;6.37;;;6.10;99.90;;;;;;5057510;28;20215;-60
2022/12/19 05:17:34;;;;;;;8.17;5.67;;;6.10;99.90;;;;;;5057726;28;20206;-56
2022/12/19 05:20:01;;;;;;;8.80;6.33;;;6.10;99.90;;;;;;5055115;28;20235;-56
2022/12/19 05:22:27;;;;;;;13.80;6.47;;;6.10;99.90;;;;;;5054024;28;20246;-56
2022/12/19 05:24:54;;;;;;;9.47;6.10;;;6.20;99.90;;;;;;5057210;28;20231;-56
2022/12/19 05:27:21;;;;;;;8.87;6.53;;;6.20;99.90;;;;;;5056289;28;20214;-56
2022/12/19 05:29:48;;;;;;;11.53;6.60;;;6.20;99.90;;;;;;5053790;28;20949;-56
2022/12/19 05:32:15;;;;;;;11.10;6.47;;;6.30;99.90;;;;;;5039516;28;20291;-56
2022/12/19 05:34:42;;;;;;;9.40;6.30;;;6.30;99.90;;;;;;5041652;28;20552;-55
2022/12/19 05:37:09;;;;;;;10.30;6.17;;;6.30;99.90;;;;;;5056217;28;20571;-57
2022/12/19 05:39:35;;;;;;;7.53;5.10;;;6.40;99.90;;;;;;5057311;28;20656;-56
2022/12/19 05:42:02;;;;;;;9.10;5.63;;;6.50;99.90;;;;;;5057713;28;20314;-56
2022/12/19 05:44:29;;;;;;;8.67;5.83;;;6.50;99.90;;;;;;5036156;28;20555;-55
2022/12/19 05:46:56;;;;;;;10.20;5.83;;;6.50;99.90;;;;;;5054224;28;20203;-56
2022/12/19 05:49:23;;;;;;;9.47;5.47;;;6.60;99.90;;;;;;5054879;28;20675;-55
2022/12/19 05:51:50;;;;;;;10.67;6.30;;;6.60;99.90;;;;;;5056032;28;20199;-56
2022/12/19 05:54:17;;;;;;;9.13;5.80;;;6.70;99.90;;;;;;5055723;28;20197;-57
2022/12/19 05:56:44;;;;;;;9.00;5.67;;;6.70;99.90;;;;;;5056160;28;20192;-56
2022/12/19 05:59:11;;;;;;;10.57;6.83;;;6.70;99.90;;;;;;5055174;28;20662;-56
2022/12/19 06:01:38;;;;;;;11.87;5.40;;;6.70;99.90;;;;;;5058722;28;20200;-55
2022/12/19 06:04:06;;;;;;;10.80;6.53;;;6.70;99.90;;;;;;5055106;28;20513;-56
2022/12/19 06:06:33;;;;;;;10.53;6.30;;;6.70;99.90;;;;;;5057251;28;20211;-56
2022/12/19 06:09:00;;;;;;;10.40;7.00;;;6.70;99.90;;;;;;5072314;28;20698;-56
2022/12/19 06:11:27;;;;;;;8.87;5.83;;;6.70;99.90;;;;;;5076015;28;20231;-56
2022/12/19 06:13:54;;;;;;;8.43;6.37;;;6.70;99.90;;;;;;5074640;28;20662;-56
2022/12/19 06:16:22;;;;;;;11.80;6.20;;;6.70;99.90;;;;;;5058269;28;20262;-57
2022/12/19 06:18:49;;;;;;;12.00;5.87;;;6.70;99.90;;;;;;5061362;28;20195;-56
2022/12/19 06:21:21;;;;;;;12.47;6.33;;;6.70;99.90;;;;;;5075915;28;20680;-56
2022/12/19 06:23:48;;;;;;;10.33;5.67;;;6.80;99.90;;;;;;5075177;28;20641;-56
2022/12/19 06:26:17;;;;;;;10.57;6.00;;;6.80;99.90;;;;;;5077797;28;20210;-56
2022/12/19 06:28:50;;;;;;;12.27;6.03;;;6.80;99.90;;;;;;5074375;28;20240;-57
2022/12/19 06:31:19;;;;;;;7.23;5.23;;;6.80;99.90;;;;;;5076196;28;20590;-56
2022/12/19 06:33:46;;;;;;;10.27;6.03;;;6.80;99.90;;;;;;5072354;28;20296;-56
2022/12/19 06:36:14;;;;;;;9.73;6.10;;;6.80;99.90;;;;;;5075506;28;20219;-56
2022/12/19 06:38:41;;;;;;;7.87;5.70;;;6.80;99.90;;;;;;5074696;28;20993;-56
2022/12/19 06:43:59;;;;;;;9.40;5.67;;;6.90;99.90;;;;;;5075637;28;20636;-56
2022/12/19 06:46:26;;;;;;;8.53;5.33;;;6.90;99.90;;;;;;5078602;28;20207;-57
2022/12/19 06:48:53;;;;;;;8.27;5.20;;;7.00;99.90;;;;;;5074463;28;20199;-56
2022/12/19 06:51:20;;;;;;;8.20;5.67;;;7.00;99.90;;;;;;5074169;28;20223;-56
2022/12/19 06:53:46;;;;;;;6.57;3.40;;;7.10;99.90;;;;;;5071354;28;20298;-59
2022/12/19 06:56:14;;;;;;;8.23;5.50;;;7.10;99.90;;;;;;4712176;28;10000306;-56
2022/12/19 06:58:42;;;;;;;6.23;4.40;;;7.10;99.90;;;;;;5053392;28;20646;-56
2022/12/19 07:01:41;;;;;;;8.53;4.93;;;7.20;99.90;;;;;;5051497;28;20296;-56
2022/12/19 07:04:11;;;;;;;7.80;5.63;;;7.20;99.90;;;;;;5061245;28;20243;-56
2022/12/19 07:06:38;;;;;;;10.17;5.83;;;7.20;99.90;;;;;;5073285;28;20220;-56
2022/12/19 07:09:10;;;;;;;7.70;4.67;;;7.20;99.90;;;;;;5071663;28;20317;-56
2022/12/19 07:11:37;;;;;;;7.87;5.43;;;7.20;99.90;;;;;;5055640;28;20280;-56
2022/12/19 07:14:04;;;;;;;6.27;4.97;;;7.20;99.90;;;;;;5065550;28;20735;-56
2022/12/19 07:16:33;;;;;;;8.07;5.33;;;7.20;99.90;;;;;;5070868;28;20211;-56
2022/12/19 07:19:00;;;;;;;7.90;5.60;;;7.20;99.90;;;;;;5058495;28;20703;-56
2022/12/19 07:21:28;;;;;;;7.13;5.53;;;7.20;99.90;;;;;;5073404;28;20221;-56
2022/12/19 07:23:55;;;;;;;8.67;6.10;;;7.20;99.90;;;;;;5071928;28;20356;-56
2022/12/19 07:26:22;;;;;;;9.83;6.03;;;7.20;99.90;;;;;;5075744;28;20195;-56
2022/12/19 07:28:48;;;;;;;7.67;5.13;;;7.30;99.90;;;;;;5073119;28;20302;-56
2022/12/19 07:31:15;;;;;;;10.30;5.40;;;7.20;99.90;;;;;;5075684;28;20238;-56
2022/12/19 07:33:42;;;;;;;7.33;5.13;;;7.20;99.90;;;;;;5069381;28;20197;-58
2022/12/19 07:36:09;;;;;;;8.50;5.57;;;7.30;99.90;;;;;;5068166;28;20297;-56
2022/12/19 07:38:36;;;;;;;7.37;5.80;;;7.20;99.90;;;;;;5069987;28;20642;-56
2022/12/19 07:41:02;;;;;;;8.23;5.57;;;7.20;99.90;;;;;;5067004;28;20194;-56
2022/12/19 07:43:29;;;;;;;7.60;4.87;;;7.30;99.90;;;;;;5072076;28;20604;-56
2022/12/19 07:45:56;;;;;;;6.77;5.00;;;7.30;99.90;;;;;;5073183;28;20302;-56
2022/12/19 07:48:23;;;;;;;8.33;5.70;;;7.30;99.90;;;;;;5069395;28;20264;-56
2022/12/19 07:50:50;;;;;;;8.60;5.33;;;7.30;99.90;;;;;;5071989;28;20208;-56
2022/12/19 07:53:17;;;;;;;6.83;5.00;;;7.40;99.90;;;;;;5073471;28;20199;-56
2022/12/19 07:55:44;;;;;;;8.77;5.23;;;7.30;99.90;;;;;;5072596;28;20218;-56
2022/12/19 07:58:10;;;;;;;6.20;4.77;;;7.40;99.90;;;;;;5069772;28;20315;-57
2022/12/19 08:00:37;;;;;;;9.27;5.80;;;7.30;99.90;;;;;;5064443;28;20486;-58
2022/12/19 08:03:04;;;;;;;7.07;4.80;;;7.40;99.90;;;;;;5075046;28;20205;-56
2022/12/19 08:05:33;;;;;;;6.50;5.07;;;7.40;99.90;;;;;;5070737;28;20295;-57
2022/12/19 08:08:00;;;;;;;6.67;4.83;;;7.40;99.90;;;;;;5063030;28;20591;-56
2022/12/19 08:10:27;;;;;;;8.20;5.80;;;7.40;99.90;;;;;;5066246;28;20334;-56
2022/12/19 08:12:54;;;;;;;9.00;5.97;;;7.40;99.90;;;;;;5068099;28;20264;-56
2022/12/19 08:15:20;;;;;;;11.50;5.23;;;7.40;99.90;;;;;;5072942;28;20702;-56
2022/12/19 08:17:47;;;;;;;7.03;4.90;;;7.40;99.90;;;;;;5053691;28;20311;-55
2022/12/19 08:20:14;;;;;;;6.63;4.03;;;7.50;99.90;;;;;;5073600;28;20202;-59
2022/12/19 08:22:41;;;;;;;8.90;5.00;;;7.50;99.90;;;;;;5068068;28;20211;-60
2022/12/19 08:25:08;;;;;;;8.63;4.90;;;7.50;99.90;;;;;;5075608;28;20202;-56
2022/12/19 08:27:34;;;;;;;6.97;5.00;;;7.50;99.90;;;;;;5074606;28;20229;-56
2022/12/19 08:30:02;;;;;;;6.80;5.03;;;7.50;99.90;;;;;;5075567;28;20194;-56
2022/12/19 08:32:29;;;;;;;7.43;4.73;;;7.60;99.90;;;;;;5075584;28;20224;-56
2022/12/19 08:34:56;;;;;;;7.07;5.33;;;7.60;99.90;;;;;;5053124;28;20208;-55
2022/12/19 08:37:22;;;;;;;8.13;5.23;;;7.60;99.90;;;;;;5071410;28;20203;-58
2022/12/19 08:39:50;;;;;;;6.17;4.53;;;7.60;99.90;;;;;;5071736;28;20195;-56
2022/12/19 08:42:17;;;;;;;9.40;4.67;;;7.60;99.90;;;;;;5071429;28;20764;-56
2022/12/19 08:44:43;;;;;;;7.33;4.77;;;7.70;99.90;;;;;;5076043;28;20201;-56
2022/12/19 08:47:10;;;;;;;7.10;4.97;;;7.70;99.90;;;;;;5076841;28;20199;-56
2022/12/19 08:49:37;;;;;;;7.43;4.90;;;7.70;99.90;;;;;;5076027;28;20200;-57
2022/12/19 08:52:03;;;;;;;5.77;4.57;;;7.70;99.90;;;;;;5074101;28;20217;-56
2022/12/19 08:54:30;;;;;;;7.13;4.63;;;7.70;99.90;;;;;;5073397;28;20301;-56
2022/12/19 08:56:57;;;;;;;7.43;4.60;;;7.70;99.90;;;;;;5073455;28;20352;-56
2022/12/19 08:59:24;;;;;;;10.50;4.77;;;7.70;99.90;;;;;;5076041;28;20206;-56
2022/12/19 09:01:58;;;;;;;7.93;4.93;;;7.70;99.90;;;;;;5074635;28;20205;-56
2022/12/19 09:04:26;;;;;;;6.20;4.53;;;7.70;99.90;;;;;;5073885;28;20205;-56
2022/12/19 09:07:13;;;;;;;6.87;4.53;;;7.70;99.90;;;;;;5072930;28;20202;-56
2022/12/19 09:09:42;;;;;;;7.37;5.30;;;7.70;99.90;;;;;;5071472;28;21066;-56
2022/12/19 09:12:10;;;;;;;7.70;4.37;;;7.70;99.90;;;;;;5074281;28;20238;-56
2022/12/19 09:14:37;;;;;;;6.97;4.77;;;7.70;99.90;;;;;;5058766;28;20255;-57
2022/12/19 09:17:04;;;;;;;7.93;4.40;;;7.70;99.90;;;;;;5073549;28;20670;-56
2022/12/19 09:19:31;;;;;;;5.30;4.23;;;7.80;99.90;;;;;;5076601;28;20208;-56
2022/12/19 09:21:58;;;;;;;11.03;4.43;;;7.80;99.90;;;;;;5080168;28;20654;-56
2022/12/19 09:24:25;;;;;;;6.23;4.30;;;7.90;99.90;;;;;;5076608;28;20198;-56
2022/12/19 09:26:52;;;;;;;6.07;4.77;;;7.90;99.90;;;;;;5074454;28;20616;-56
2022/12/19 09:29:19;;;;;;;6.77;4.43;;;7.90;99.90;;;;;;5076143;28;20208;-56
2022/12/19 09:31:49;;;;;;;5.90;3.50;;;8.10;99.90;;;;;;5076472;28;20210;-57
2022/12/19 09:34:22;;;;;;;4.63;3.73;;;8.00;99.90;;;;;;5075695;28;20209;-57
2022/12/19 09:36:53;;;;;;;5.57;3.90;;;8.00;99.90;;;;;;5075633;28;20234;-57
2022/12/19 09:39:19;;;;;;;6.07;4.30;;;8.00;99.90;;;;;;5074710;28;20303;-56
2022/12/19 09:42:07;;;;;;;6.10;4.13;;;7.90;99.90;;;;;;5074877;28;20208;-57
2022/12/19 09:44:40;;;;;;;6.13;4.30;;;7.90;99.90;;;;;;5074156;28;20209;-57
2022/12/19 09:47:15;;;;;;;8.17;4.90;;;8.00;99.90;;;;;;5075359;28;20206;-57
2022/12/19 09:49:44;;;;;;;5.57;4.27;;;8.00;99.90;;;;;;5068921;28;20228;-57
2022/12/19 09:52:14;;;;;;;6.03;4.60;;;8.00;99.90;;;;;;5073901;28;20638;-57
2022/12/19 09:54:51;;;;;;;6.50;3.87;;;8.00;99.90;;;;;;5075802;28;20227;-56
2022/12/19 09:57:45;;;;;;;7.23;4.23;;;8.00;99.90;;;;;;5073264;28;20225;-56
2022/12/19 10:00:19;;;;;;;6.40;4.30;;;8.00;99.90;;;;;;5073703;28;20216;-56
2022/12/19 10:02:52;;;;;;;6.40;4.30;;;8.00;99.90;;;;;;5069601;28;20251;-57
2022/12/19 10:05:44;;;;;;;8.47;4.33;;;8.10;99.90;;;;;;5074207;28;20715;-56
2022/12/19 10:08:37;;;;;;;7.27;4.20;;;8.10;99.90;;;;;;5072910;28;20227;-57
2022/12/19 10:11:49;;;;;;;4.67;3.70;;;8.10;99.90;;;;;;5074113;28;20222;-56
2022/12/19 10:14:55;;;;;;;7.00;4.20;;;8.20;99.90;;;;;;5074529;28;20207;-56
2022/12/19 10:18:04;;;;;;;5.13;4.23;;;8.30;99.90;;;;;;5072509;28;20219;-57
2022/12/19 10:20:39;;;;;;;5.80;4.23;;;8.30;99.90;;;;;;5074760;28;20214;-56
2022/12/19 10:23:24;;;;;;;6.47;3.83;;;8.40;99.90;;;;;;5076185;28;20207;-56
2022/12/19 10:26:19;;;;;;;5.53;3.70;;;8.40;99.90;;;;;;5073718;28;20301;-56
2022/12/19 10:28:49;;;;;;;5.37;3.67;;;8.40;99.90;;;;;;5072434;28;20300;-56
2022/12/19 10:31:40;;;;;;;4.70;3.40;;;8.50;99.90;;;;;;5075190;28;20296;-56
2022/12/19 10:34:39;;;;;;;4.83;3.47;;;8.50;99.90;;;;;;5073248;28;20202;-56
2022/12/19 10:37:26;;;;;;;3.87;3.30;;;8.50;99.90;;;;;;5071130;28;20686;-55
2022/12/19 10:40:16;;;;;;;5.63;3.70;;;8.60;99.90;;;;;;5073439;28;20662;-56
2022/12/19 10:43:30;;;;;;;5.70;2.80;;;8.60;99.90;;;;;;5071614;28;20261;-56
2022/12/19 10:46:30;;;;;;;6.33;3.60;;;8.60;99.90;;;;;;5073794;28;22145;-56
2022/12/19 10:49:05;;;;;;;5.70;3.20;;;8.50;99.90;;;;;;5073667;28;20533;-58
2022/12/19 10:51:32;;;;;;;5.10;3.33;;;8.50;99.90;;;;;;5071544;28;20204;-56
2022/12/19 10:54:00;;;;;;;6.13;4.07;;;8.40;99.90;;;;;;5053981;28;20206;-56
2022/12/19 10:56:29;;;;;;;4.20;3.20;;;8.40;99.90;;;;;;5070014;28;20237;-59
2022/12/19 10:59:14;;;;;;;5.27;3.40;;;8.40;99.90;;;;;;5069949;28;20241;-56
2022/12/19 11:01:42;;;;;;;6.37;3.67;;;8.40;99.90;;;;;;5077755;28;20203;-57
2022/12/19 11:04:32;;;;;;;5.63;2.97;;;8.40;99.90;;;;;;5075493;28;20218;-60
2022/12/19 11:07:02;;;;;;;7.23;4.27;;;8.40;99.90;;;;;;5074217;28;20267;-56
2022/12/19 11:09:39;;;;;;;4.60;3.70;;;8.40;99.90;;;;;;5073756;28;20228;-56
2022/12/19 11:12:13;;;;;;;9.00;3.67;;;8.40;99.90;;;;;;5070552;28;20234;-56
2022/12/19 11:15:25;;;;;;;4.97;3.10;;;8.40;99.90;;;;;;5075468;28;20207;-57
2022/12/19 11:18:13;;;;;;;8.33;3.73;;;8.50;99.90;;;;;;5071611;28;20606;-57
2022/12/19 11:21:14;;;;;;;5.13;3.80;;;8.50;99.90;;;;;;5077464;28;20229;-56
2022/12/19 11:24:10;;;;;;;3.60;3.10;;;8.50;99.90;;;;;;5074398;28;21038;-56
2022/12/19 11:26:57;;;;;;;4.33;3.40;;;8.50;99.90;;;;;;5073482;28;20209;-57
2022/12/19 11:29:48;;;;;;;6.00;3.40;;;8.50;99.90;;;;;;5070789;28;20217;-57
2022/12/19 11:32:40;;;;;;;5.37;4.07;;;8.60;99.90;;;;;;5074297;28;20275;-56
2022/12/19 11:35:21;;;;;;;4.03;3.37;;;8.60;99.90;;;;;;5073078;28;20208;-56
2022/12/19 11:38:03;;;;;;;5.00;4.20;;;8.70;99.90;;;;;;5072775;28;20304;-56
2022/12/19 11:40:35;;;;;;;4.50;3.20;;;8.70;99.90;;;;;;5070970;28;20198;-56
2022/12/19 11:43:18;;;;;;;4.57;3.70;;;8.70;99.90;;;;;;5072420;28;20210;-56
2022/12/19 11:46:23;;;;;;;4.23;3.20;;;8.70;99.90;;;;;;5073313;28;20207;-55
2022/12/19 11:48:59;;;;;;;5.03;3.40;;;8.70;99.90;;;;;;5074960;28;20206;-56
2022/12/19 11:51:50;;;;;;;5.37;3.33;;;8.70;99.90;;;;;;5072124;28;20662;-56
2022/12/19 11:54:28;;;;;;;8.17;3.50;;;8.80;99.90;;;;;;5074956;28;20227;-57
2022/12/19 11:56:56;;;;;;;4.33;3.87;;;8.80;99.90;;;;;;5071131;28;20334;-56
2022/12/19 11:59:45;;;;;;;4.53;3.40;;;8.80;99.90;;;;;;5069744;28;20205;-56
2022/12/19 12:02:20;;;;;;;4.73;3.43;;;8.90;99.90;;;;;;5076196;28;20250;-56
2022/12/19 12:05:06;;;;;;;5.60;3.53;;;8.80;99.90;;;;;;5072968;28;20195;-56
2022/12/19 12:07:38;;;;;;;6.47;3.63;;;8.90;99.90;;;;;;5071287;28;20213;-56
2022/12/19 12:10:28;;;;;;;3.97;3.33;;;8.90;99.90;;;;;;5070861;28;20252;-56
2022/12/19 12:13:36;;;;;;;4.43;3.20;;;9.00;99.90;;;;;;5071709;28;20214;-55
2022/12/19 12:16:37;;;;;;;4.67;3.10;;;9.00;99.90;;;;;;5072926;28;20218;-56
2022/12/19 12:19:49;;;;;;;4.43;2.97;;;9.10;99.90;;;;;;5074687;28;20210;-56
2022/12/19 12:23:07;;;;;;;4.93;3.10;;;9.10;99.90;;;;;;5075817;28;20197;-56
2022/12/19 12:26:17;;;;;;;4.63;3.00;;;9.10;99.90;;;;;;5074154;28;20613;-56
2022/12/19 12:29:28;;;;;;;5.33;3.17;;;9.20;99.90;;;;;;5073226;28;20203;-56
2022/12/19 12:32:43;;;;;;;4.03;3.10;;;9.20;99.90;;;;;;5075374;28;20209;-56
2022/12/19 12:35:35;;;;;;;4.50;2.93;;;9.30;99.90;;;;;;5071018;28;20205;-56
2022/12/19 12:38:43;;;;;;;4.17;2.80;;;9.40;99.90;;;;;;5070036;28;20587;-56
2022/12/19 12:44:14;;;;;;;4.17;2.80;;;9.50;99.90;;;;;;5050134;28;20311;-55
2022/12/19 12:46:56;;;;;;;4.57;3.20;;;9.50;99.90;;;;;;5069768;28;20294;-57
2022/12/19 12:49:34;;;;;;;3.67;3.03;;;9.60;99.90;;;;;;5068188;28;20197;-55
2022/12/19 12:52:05;;;;;;;4.93;2.57;;;9.60;99.90;;;;;;5073582;28;20221;-59
2022/12/19 12:54:40;;;;;;;4.63;3.23;;;9.60;99.90;;;;;;5072125;28;20556;-56
2022/12/19 12:57:25;;;;;;;4.20;2.97;;;9.70;99.90;;;;;;5069515;28;20215;-56
2022/12/19 13:00:30;;;;;;;5.00;2.60;;;9.70;99.90;;;;;;5072561;28;20209;-57
2022/12/19 13:03:05;;;;;;;4.77;3.10;;;9.80;99.90;;;;;;5069783;28;20209;-57
2022/12/19 13:05:39;;;;;;;3.87;2.90;;;9.80;99.90;;;;;;5075189;28;20235;-58
2022/12/19 13:08:28;;;;;;;3.30;2.70;;;9.80;99.90;;;;;;5075353;28;20203;-56
2022/12/19 13:10:58;;;;;;;4.03;2.67;;;9.80;99.90;;;;;;5073228;28;20361;-62
2022/12/19 13:13:54;;;;;;;3.33;2.70;;;9.80;99.90;;;;;;5073179;28;20289;-56
2022/12/19 13:16:43;;;;;;;5.20;3.30;;;9.80;99.90;;;;;;5077561;28;20217;-56
2022/12/19 13:19:16;;;;;;;4.50;2.60;;;9.80;99.90;;;;;;5075642;28;20202;-56
2022/12/19 13:22:14;;;;;;;6.40;3.20;;;9.80;99.90;;;;;;5058597;28;20662;-57
2022/12/19 13:24:54;;;;;;;5.67;2.83;;;9.90;99.90;;;;;;5076513;28;20198;-56
2022/12/19 13:27:21;;;;;;;4.43;2.87;;;9.90;99.90;;;;;;5071324;28;20295;-57
2022/12/19 13:30:00;;;;;;;4.27;2.63;;;9.90;99.90;;;;;;5075868;28;20592;-57
2022/12/19 13:32:47;;;;;;;4.47;2.90;;;9.90;99.90;;;;;;5074596;28;20221;-56
2022/12/19 13:35:15;;;;;;;4.40;3.27;;;10.00;99.90;;;;;;5076397;28;20254;-57
2022/12/19 13:38:05;;;;;;;6.37;3.17;;;10.00;99.90;;;;;;5075524;28;20233;-55